createdAt,value
2022-11-24T00:00:24.677Z,-0.35
2022-11-24T00:02:47.203Z,-0.36
2022-11-24T00:05:09.674Z,-0.38
2022-11-24T00:07:32.157Z,-0.41
2022-11-24T00:09:54.564Z,-0.36
2022-11-24T00:12:16.918Z,-0.34
2022-11-24T00:14:39.289Z,-0.31
2022-11-24T00:17:01.732Z,-0.29
2022-11-24T00:19:24.200Z,-0.38
2022-11-24T00:21:46.598Z,-0.33
2022-11-24T00:24:10.285Z,-0.32
2022-11-24T00:26:34.699Z,-0.24
2022-11-24T00:28:59.705Z,-0.22
2022-11-24T00:31:36.767Z,-0.26
2022-11-24T00:34:01.279Z,-0.25
2022-11-24T00:36:25.261Z,-0.20
2022-11-24T00:38:47.817Z,-0.16
2022-11-24T00:41:10.268Z,-0.23
2022-11-24T00:43:32.747Z,-0.21
2022-11-24T00:45:55.315Z,-0.18
2022-11-24T00:48:18.040Z,-0.20
2022-11-24T00:50:40.532Z,-0.16
2022-11-24T00:53:02.941Z,-0.19
2022-11-24T00:55:25.324Z,-0.16
2022-11-24T00:57:47.689Z,-0.19
2022-11-24T01:00:10.406Z,-0.15
2022-11-24T01:02:32.794Z,-0.16
2022-11-24T01:04:55.234Z,-0.15
2022-11-24T01:07:17.690Z,-0.14
2022-11-24T01:09:43.260Z,-0.15
2022-11-24T01:12:05.946Z,-0.13
2022-11-24T01:14:28.729Z,-0.11
2022-11-24T01:16:51.212Z,-0.08
2022-11-24T01:19:13.576Z,-0.12
2022-11-24T01:21:35.958Z,-0.11
2022-11-24T01:23:58.417Z,-0.10
2022-11-24T01:26:22.024Z,-0.08
2022-11-24T01:28:47.581Z,-0.05
2022-11-24T01:31:10.420Z,-0.06
2022-11-24T01:33:33.883Z,-0.10
2022-11-24T01:35:58.170Z,-0.12
2022-11-24T01:38:21.002Z,-0.13
2022-11-24T01:40:43.380Z,-0.12
2022-11-24T01:43:21.629Z,-0.11
2022-11-24T01:45:44.854Z,-0.08
2022-11-24T01:48:10.124Z,-0.15
2022-11-24T01:50:32.598Z,-0.23
2022-11-24T01:52:55.493Z,-0.22
2022-11-24T01:55:22.083Z,-0.25
2022-11-24T01:57:51.998Z,-0.33
2022-11-24T02:00:15.094Z,-0.35
2022-11-24T02:02:37.634Z,-0.33
2022-11-24T02:05:06.136Z,-0.31
2022-11-24T02:07:28.578Z,-0.27
2022-11-24T02:09:58.047Z,-0.26
2022-11-24T02:12:20.561Z,-0.27
2022-11-24T02:14:43.507Z,-0.28
2022-11-24T02:17:05.924Z,-0.23
2022-11-24T02:19:40.022Z,-0.22
2022-11-24T02:22:02.548Z,-0.18
2022-11-24T02:24:35.650Z,-0.29
2022-11-24T02:26:58.174Z,-0.26
2022-11-24T02:29:21.156Z,-0.27
2022-11-24T02:31:48.204Z,-0.27
2022-11-24T02:34:10.611Z,-0.26
2022-11-24T02:36:32.988Z,-0.26
2022-11-24T02:38:55.360Z,-0.27
2022-11-24T02:41:20.862Z,-0.34
2022-11-24T02:43:49.520Z,-0.33
2022-11-24T02:46:12.047Z,-0.33
2022-11-24T02:48:34.427Z,-0.38
2022-11-24T02:50:56.784Z,-0.35
2022-11-24T02:53:19.157Z,-0.38
2022-11-24T02:55:41.541Z,-0.44
2022-11-24T02:58:04.004Z,-0.38
2022-11-24T03:00:26.376Z,-0.37
2022-11-24T03:02:48.929Z,-0.38
2022-11-24T03:05:12.182Z,-0.39
2022-11-24T03:07:34.611Z,-0.44
2022-11-24T03:09:57.033Z,-0.42
2022-11-24T03:12:19.432Z,-0.39
2022-11-24T03:14:41.786Z,-0.39
2022-11-24T03:17:04.309Z,-0.45
2022-11-24T03:19:26.689Z,-0.44
2022-11-24T03:21:49.067Z,-0.39
2022-11-24T03:24:11.473Z,-0.45
2022-11-24T03:26:34.329Z,-0.46
2022-11-24T03:28:57.384Z,-0.41
2022-11-24T03:31:19.839Z,-0.44
2022-11-24T03:33:42.333Z,-0.41
2022-11-24T03:36:05.744Z,-0.37
2022-11-24T03:38:28.118Z,-0.33
2022-11-24T03:40:50.482Z,-0.32
2022-11-24T03:43:12.903Z,-0.31
2022-11-24T03:45:50.604Z,-0.33
2022-11-24T03:48:13.576Z,-0.36
2022-11-24T03:50:36.009Z,-0.32
2022-11-24T03:52:58.523Z,-0.32
2022-11-24T03:55:20.932Z,-0.31
2022-11-24T03:57:43.294Z,-0.29
2022-11-24T04:00:07.000Z,-0.30
2022-11-24T04:02:29.443Z,-0.29
2022-11-24T04:04:52.721Z,-0.27
2022-11-24T04:07:15.145Z,-0.30
2022-11-24T04:09:37.680Z,-0.29
2022-11-24T04:12:18.740Z,-0.29
2022-11-24T04:14:41.273Z,-0.35
2022-11-24T04:17:04.368Z,-0.31
2022-11-24T04:19:26.761Z,-0.29
2022-11-24T04:21:49.164Z,-0.23
2022-11-24T04:24:11.544Z,-0.24
2022-11-24T04:26:33.909Z,-0.21
2022-11-24T04:28:56.249Z,-0.19
2022-11-24T04:31:18.708Z,-0.16
2022-11-24T04:33:41.118Z,-0.14
2022-11-24T04:36:03.572Z,-0.11
2022-11-24T04:39:25.521Z,-0.11
2022-11-24T04:41:09.129Z,-0.11
2022-11-24T04:43:34.151Z,-0.18
2022-11-24T04:46:01.270Z,-0.16
2022-11-24T04:48:23.698Z,-0.12
2022-11-24T04:50:46.104Z,-0.08
2022-11-24T04:53:09.515Z,-0.04
2022-11-24T04:55:31.879Z,-0.05
2022-11-24T04:57:54.245Z,-0.03
2022-11-24T05:00:17.255Z,0.01
2022-11-24T05:02:39.684Z,0.03
2022-11-24T05:05:02.123Z,0.04
2022-11-24T05:07:24.511Z,0.04
2022-11-24T05:10:06.270Z,0.05
2022-11-24T05:12:31.625Z,0.05
2022-11-24T05:14:53.940Z,0.10
2022-11-24T05:17:16.275Z,-0.01
2022-11-24T05:19:38.864Z,0.02
2022-11-24T05:22:01.227Z,0.04
2022-11-24T05:24:23.563Z,0.05
2022-11-24T05:26:45.930Z,0.04
2022-11-24T05:29:08.291Z,0.04
2022-11-24T05:31:31.124Z,-0.03
2022-11-24T05:33:53.491Z,0.00
2022-11-24T05:36:34.505Z,0.00
2022-11-24T05:38:56.934Z,0.02
2022-11-24T05:41:19.256Z,0.03
2022-11-24T05:43:41.567Z,-0.06
2022-11-24T05:46:03.911Z,-0.09
2022-11-24T05:48:26.310Z,-0.07
2022-11-24T05:50:56.954Z,-0.01
2022-11-24T05:53:19.289Z,-0.02
2022-11-24T05:55:41.631Z,-0.04
2022-11-24T05:58:08.392Z,-0.04
2022-11-24T06:00:31.743Z,-0.01
2022-11-24T06:02:54.197Z,-0.02
2022-11-24T06:05:16.729Z,-0.05
2022-11-24T06:07:39.086Z,0.00
2022-11-24T06:10:01.465Z,-0.03
2022-11-24T06:12:23.750Z,-0.02
2022-11-24T06:14:46.133Z,-0.03
2022-11-24T06:17:10.100Z,-0.06
2022-11-24T06:19:32.480Z,-0.11
2022-11-24T06:21:54.967Z,-0.06
2022-11-24T06:24:17.258Z,-0.10
2022-11-24T06:26:39.605Z,-0.04
2022-11-24T06:29:01.872Z,-0.04
2022-11-24T06:31:24.251Z,-0.03
2022-11-24T06:33:46.992Z,-0.05
2022-11-24T06:36:12.116Z,-0.04
2022-11-24T06:38:35.237Z,-0.13
2022-11-24T06:41:06.413Z,-0.05
2022-11-24T06:43:29.509Z,-0.02
2022-11-24T06:45:52.216Z,0.00
2022-11-24T06:48:14.543Z,0.00
2022-11-24T06:50:37.588Z,-0.01
2022-11-24T06:52:59.867Z,0.05
2022-11-24T06:55:22.171Z,0.09
2022-11-24T06:57:44.512Z,0.07
2022-11-24T07:00:08.067Z,0.07
2022-11-24T07:02:30.388Z,0.07
2022-11-24T07:04:52.710Z,0.11
2022-11-24T07:07:15.051Z,0.10
2022-11-24T07:09:37.387Z,0.12
2022-11-24T07:11:59.653Z,0.11
2022-11-24T07:14:22.022Z,0.08
2022-11-24T07:16:44.375Z,0.07
2022-11-24T07:19:06.752Z,0.11
2022-11-24T07:21:30.564Z,0.09
2022-11-24T07:23:54.539Z,0.06
2022-11-24T07:26:17.590Z,0.08
2022-11-24T07:28:40.416Z,0.14
2022-11-24T07:31:11.206Z,0.12
2022-11-24T07:33:33.564Z,0.16
2022-11-24T07:35:55.888Z,0.15
2022-11-24T07:38:18.227Z,0.15
2022-11-24T07:40:40.530Z,0.16
2022-11-24T07:43:02.816Z,0.09
2022-11-24T07:45:25.089Z,0.13
2022-11-24T07:47:47.410Z,0.08
2022-11-24T07:50:10.689Z,0.05
2022-11-24T07:52:32.905Z,0.00
2022-11-24T07:54:55.269Z,0.05
2022-11-24T07:57:17.545Z,0.08
2022-11-24T07:59:39.847Z,0.10
2022-11-24T08:02:02.147Z,0.10
2022-11-24T08:04:24.510Z,0.11
2022-11-24T08:06:47.619Z,0.10
2022-11-24T08:09:10.156Z,0.09
2022-11-24T08:11:33.164Z,0.07
2022-11-24T08:13:55.518Z,0.13
2022-11-24T08:16:19.068Z,0.15
2022-11-24T08:18:41.787Z,0.16
2022-11-24T08:21:04.588Z,0.12
2022-11-24T08:23:27.216Z,0.13
2022-11-24T08:25:54.171Z,0.15
2022-11-24T08:28:19.032Z,0.13
2022-11-24T08:30:41.325Z,0.14
2022-11-24T08:33:03.978Z,0.11
2022-11-24T08:35:26.303Z,0.08
2022-11-24T08:37:48.644Z,0.10
2022-11-24T08:40:11.939Z,0.17
2022-11-24T08:42:34.161Z,0.03
2022-11-24T08:44:59.052Z,0.08
2022-11-24T08:47:21.697Z,0.08
2022-11-24T08:49:43.967Z,0.12
2022-11-24T08:52:06.232Z,0.16
2022-11-24T08:54:28.771Z,0.17
2022-11-24T08:56:51.050Z,0.16
2022-11-24T08:59:14.208Z,0.20
2022-11-24T09:01:36.619Z,0.20
2022-11-24T09:03:58.967Z,0.17
2022-11-24T09:06:25.429Z,0.20
2022-11-24T09:08:48.593Z,0.20
2022-11-24T09:11:13.579Z,0.13
2022-11-24T09:13:36.296Z,0.02
2022-11-24T09:16:04.437Z,0.01
2022-11-24T09:18:30.291Z,0.03
2022-11-24T09:20:52.887Z,-0.01
2022-11-24T09:23:15.178Z,0.01
2022-11-24T09:25:37.618Z,0.06
2022-11-24T09:28:00.080Z,0.08
2022-11-24T09:30:23.283Z,0.09
2022-11-24T09:32:45.546Z,-0.03
2022-11-24T09:35:08.159Z,0.02
2022-11-24T09:37:32.861Z,0.08
2022-11-24T09:39:55.325Z,0.09
2022-11-24T09:42:38.288Z,0.12
2022-11-24T09:45:48.940Z,0.19
2022-11-24T09:48:31.096Z,0.20
2022-11-24T09:50:53.466Z,0.26
2022-11-24T09:53:39.637Z,0.31
2022-11-24T09:56:28.932Z,0.33
2022-11-24T09:59:06.960Z,0.31
2022-11-24T10:01:31.605Z,0.32
2022-11-24T10:03:54.121Z,0.36
2022-11-24T10:06:30.582Z,0.34
2022-11-24T10:09:56.703Z,0.26
2022-11-24T10:13:14.375Z,0.29
2022-11-24T10:15:53.826Z,0.32
2022-11-24T10:18:45.519Z,0.33
2022-11-24T10:21:37.405Z,0.04
2022-11-24T10:24:12.931Z,0.16
2022-11-24T10:26:40.344Z,0.28
2022-11-24T10:29:28.860Z,0.35
2022-11-24T10:31:55.178Z,0.39
2022-11-24T10:34:29.913Z,0.41
2022-11-24T10:37:17.807Z,0.43
2022-11-24T10:40:04.123Z,0.35
2022-11-24T10:42:37.018Z,0.31
2022-11-24T10:45:01.566Z,0.33
2022-11-24T10:47:23.849Z,0.39
2022-11-24T10:50:41.450Z,0.45
2022-11-24T10:53:28.309Z,0.46
2022-11-24T10:55:56.624Z,0.52
2022-11-24T10:58:32.980Z,0.59
2022-11-24T11:01:15.503Z,0.54
2022-11-24T11:03:52.571Z,0.54
2022-11-24T11:06:21.101Z,0.49
2022-11-24T11:08:43.435Z,0.44
2022-11-24T11:11:26.706Z,0.48
2022-11-24T11:14:04.440Z,0.44
2022-11-24T11:16:53.404Z,0.46
2022-11-24T11:19:48.954Z,0.42
2022-11-24T11:22:11.863Z,0.39
2022-11-24T11:24:34.215Z,0.32
2022-11-24T11:27:05.095Z,0.41
2022-11-24T11:35:11.282Z,0.45
2022-11-24T11:37:33.610Z,0.55
2022-11-24T11:39:55.924Z,0.65
2022-11-24T11:43:00.581Z,0.70
2022-11-24T11:45:21.900Z,0.71
2022-11-24T11:48:05.658Z,0.74
2022-11-24T11:51:24.525Z,0.72
2022-11-24T11:54:18.294Z,0.72
2022-11-24T11:56:45.757Z,0.68
2022-11-24T11:59:41.278Z,0.73
2022-11-24T12:02:47.162Z,0.79
2022-11-24T12:05:42.353Z,0.79
2022-11-24T12:09:11.773Z,0.84
2022-11-24T12:11:44.115Z,0.91
2022-11-24T12:14:39.343Z,0.84
2022-11-24T12:17:26.317Z,0.89
2022-11-24T12:19:58.863Z,0.87
2022-11-24T12:22:59.571Z,0.83
2022-11-24T12:25:40.933Z,0.90
2022-11-24T12:28:37.787Z,0.92
2022-11-24T12:31:07.160Z,0.97
2022-11-24T12:33:50.498Z,0.96
2022-11-24T12:37:12.029Z,0.97
2022-11-24T12:39:57.329Z,0.93
2022-11-24T12:42:39.368Z,0.95
2022-11-24T12:45:28.452Z,0.95
2022-11-24T12:48:20.155Z,0.99
2022-11-24T12:50:36.816Z,1.00
2022-11-24T12:52:58.473Z,0.95
2022-11-24T12:55:21.987Z,0.98
2022-11-24T12:57:52.071Z,1.01
2022-11-24T13:00:20.279Z,1.03
2022-11-24T13:03:21.233Z,1.01
2022-11-24T13:06:18.998Z,1.08
2022-11-24T13:08:41.319Z,1.00
2022-11-24T13:11:23.547Z,1.04
2022-11-24T13:14:18.853Z,1.04
2022-11-24T13:17:28.008Z,1.06
2022-11-24T13:19:39.039Z,1.08
2022-11-24T13:22:07.016Z,1.13
2022-11-24T13:24:36.196Z,1.17
2022-11-24T13:27:27.179Z,1.14
2022-11-24T13:29:52.717Z,1.14
2022-11-24T13:32:14.931Z,1.10
2022-11-24T13:34:42.993Z,1.13
2022-11-24T13:37:31.592Z,1.02
2022-11-24T13:40:00.590Z,1.00
2022-11-24T13:42:44.088Z,0.99
2022-11-24T13:45:29.494Z,0.89
2022-11-24T13:47:51.789Z,0.84
2022-11-24T13:50:21.535Z,0.88
2022-11-24T13:52:49.675Z,0.91
2022-11-24T13:55:11.919Z,0.99
2022-11-24T13:57:35.394Z,1.01
2022-11-24T14:00:01.732Z,1.06
2022-11-24T14:02:24.049Z,1.03
2022-11-24T14:04:46.651Z,0.98
2022-11-24T14:07:12.243Z,1.04
2022-11-24T14:09:46.147Z,1.05
2022-11-24T14:12:15.652Z,1.03
2022-11-24T14:14:38.298Z,1.03
2022-11-24T14:17:24.069Z,1.05
2022-11-24T14:19:48.831Z,1.04
2022-11-24T14:22:41.441Z,1.06
2022-11-24T14:25:04.104Z,1.06
2022-11-24T14:27:38.219Z,1.05
2022-11-24T14:30:25.479Z,1.08
2022-11-24T14:33:01.673Z,1.01
2022-11-24T14:35:26.905Z,0.98
2022-11-24T14:37:49.274Z,1.01
2022-11-24T14:40:44.715Z,1.06
2022-11-24T14:43:19.260Z,1.04
2022-11-24T14:45:55.581Z,1.03
2022-11-24T14:48:18.173Z,1.03
2022-11-24T14:50:40.525Z,0.97
2022-11-24T14:53:02.961Z,1.03
2022-11-24T14:55:32.072Z,1.03
2022-11-24T14:57:54.617Z,1.04
2022-11-24T15:00:31.528Z,1.04
2022-11-24T15:03:00.604Z,1.05
2022-11-24T15:05:24.671Z,1.03
2022-11-24T15:07:47.289Z,1.05
2022-11-24T15:10:35.155Z,0.97
2022-11-24T15:12:59.255Z,1.01
2022-11-24T15:15:24.240Z,1.02
2022-11-24T15:17:57.993Z,1.05
2022-11-24T15:20:30.344Z,1.05
2022-11-24T15:23:13.416Z,1.09
2022-11-24T15:25:35.847Z,1.02
2022-11-24T15:27:58.176Z,1.02
2022-11-24T15:30:20.475Z,1.02
2022-11-24T15:32:53.671Z,0.97
2022-11-24T15:35:15.949Z,0.85
2022-11-24T15:37:38.263Z,0.75
2022-11-24T15:40:00.593Z,0.83
2022-11-24T15:42:22.876Z,0.86
2022-11-24T15:44:45.170Z,0.89
2022-11-24T15:47:08.588Z,0.94
2022-11-24T15:49:31.135Z,0.92
2022-11-24T15:51:53.463Z,0.92
2022-11-24T15:54:16.917Z,0.95
2022-11-24T15:56:41.890Z,0.94
2022-11-24T15:59:04.256Z,0.92
2022-11-24T16:01:33.280Z,0.92
2022-11-24T16:03:55.721Z,0.95
2022-11-24T16:06:24.527Z,0.91
2022-11-24T16:08:47.768Z,0.88
2022-11-24T16:11:10.070Z,0.82
2022-11-24T16:13:33.566Z,0.85
2022-11-24T16:15:55.955Z,0.80
2022-11-24T16:18:18.357Z,0.78
2022-11-24T16:20:40.667Z,0.77
2022-11-24T16:23:06.528Z,0.79
2022-11-24T16:25:28.902Z,0.88
2022-11-24T16:27:51.173Z,0.89
2022-11-24T16:30:13.875Z,0.89
2022-11-24T16:32:36.277Z,0.85
2022-11-24T16:34:58.595Z,0.86
2022-11-24T16:37:23.899Z,0.89
2022-11-24T16:39:50.028Z,0.87
2022-11-24T16:42:12.727Z,0.83
2022-11-24T16:44:35.232Z,0.84
2022-11-24T16:46:57.759Z,0.87
2022-11-24T16:49:20.161Z,0.85
2022-11-24T16:51:42.698Z,0.84
2022-11-24T16:54:05.034Z,0.83
2022-11-24T16:56:28.555Z,0.84
2022-11-24T16:58:50.850Z,0.80
2022-11-24T17:01:13.674Z,0.81
2022-11-24T17:03:39.116Z,0.88
2022-11-24T17:06:01.605Z,0.86
2022-11-24T17:08:23.902Z,0.85
2022-11-24T17:10:46.201Z,0.83
2022-11-24T17:13:08.589Z,0.82
2022-11-24T17:15:35.526Z,0.84
2022-11-24T17:20:42.517Z,0.84
2022-11-24T17:23:04.825Z,0.82
2022-11-24T17:25:27.122Z,0.79
2022-11-24T17:27:49.404Z,0.82
2022-11-24T17:30:12.382Z,0.79
2022-11-24T17:32:35.151Z,0.83
2022-11-24T17:34:57.902Z,0.84
2022-11-24T17:37:20.279Z,0.86
2022-11-24T17:39:59.785Z,0.83
2022-11-24T17:42:25.406Z,0.78
2022-11-24T17:44:47.691Z,0.84
2022-11-24T17:47:09.996Z,0.84
2022-11-24T17:49:32.303Z,0.87
2022-11-24T17:51:54.620Z,0.84
2022-11-24T17:54:45.396Z,0.84
2022-11-24T17:57:00.562Z,0.88
2022-11-24T17:59:22.858Z,0.88
2022-11-24T18:01:45.197Z,0.80
2022-11-24T18:04:07.541Z,0.83
2022-11-24T18:06:29.915Z,0.78
2022-11-24T18:08:54.164Z,0.77
2022-11-24T18:11:24.675Z,0.84
2022-11-24T18:13:58.269Z,0.85
2022-11-24T18:16:22.560Z,0.86
2022-11-24T18:18:50.074Z,0.86
2022-11-24T18:21:15.055Z,0.76
2022-11-24T18:23:37.369Z,0.80
2022-11-24T18:26:01.734Z,0.82
2022-11-24T18:28:24.106Z,0.83
2022-11-24T18:30:46.405Z,0.85
2022-11-24T18:33:08.734Z,0.81
2022-11-24T18:35:31.002Z,0.83
2022-11-24T18:37:53.609Z,0.84
2022-11-24T18:40:16.008Z,0.86
2022-11-24T18:42:38.320Z,0.84
2022-11-24T18:45:00.638Z,0.85
2022-11-24T18:47:23.130Z,0.84
2022-11-24T18:49:45.448Z,0.85
2022-11-24T18:52:07.741Z,0.88
2022-11-24T18:54:30.038Z,0.85
2022-11-24T18:56:52.319Z,0.87
2022-11-24T18:59:14.663Z,0.92
2022-11-24T19:01:37.777Z,0.90
2022-11-24T19:04:01.829Z,0.82
2022-11-24T19:06:32.946Z,0.89
2022-11-24T19:08:55.490Z,0.82
2022-11-24T19:11:29.690Z,0.86
2022-11-24T19:13:52.409Z,0.83
2022-11-24T19:16:15.561Z,0.84
2022-11-24T19:18:37.855Z,0.82
2022-11-24T19:21:00.132Z,0.84
2022-11-24T19:23:22.661Z,0.88
2022-11-24T19:25:45.347Z,0.91
2022-11-24T19:28:09.181Z,0.94
2022-11-24T19:30:31.524Z,0.91
2022-11-24T19:32:53.890Z,0.96
2022-11-24T19:35:16.291Z,0.92
2022-11-24T19:37:38.691Z,0.91
2022-11-24T19:40:01.169Z,0.96
2022-11-24T19:42:23.482Z,0.97
2022-11-24T19:44:45.762Z,0.94
2022-11-24T19:47:08.054Z,0.96
2022-11-24T19:49:30.395Z,0.96
2022-11-24T19:51:53.674Z,0.91
2022-11-24T19:54:17.130Z,0.86
2022-11-24T19:56:39.454Z,0.88
2022-11-24T19:59:04.029Z,0.94
2022-11-24T20:01:29.172Z,0.91
2022-11-24T20:04:02.864Z,0.94
2022-11-24T20:06:25.851Z,0.91
2022-11-24T20:08:48.399Z,0.94
2022-11-24T20:11:15.985Z,0.97
2022-11-24T20:13:39.724Z,0.98
2022-11-24T20:16:09.323Z,0.93
2022-11-24T20:18:33.632Z,0.95
2022-11-24T20:21:06.605Z,0.94
2022-11-24T20:23:28.901Z,0.97
2022-11-24T20:25:51.215Z,0.99
2022-11-24T20:28:13.493Z,1.00
2022-11-24T20:30:35.861Z,0.96
2022-11-24T20:32:58.304Z,0.99
2022-11-24T20:35:20.642Z,0.97
2022-11-24T20:37:42.946Z,1.02
2022-11-24T20:40:06.283Z,0.99
2022-11-24T20:42:28.676Z,0.99
2022-11-24T20:44:50.998Z,1.00
2022-11-24T20:47:13.336Z,0.97
2022-11-24T20:49:35.704Z,0.98
2022-11-24T20:51:58.104Z,0.97
2022-11-24T20:54:20.523Z,0.97
2022-11-24T20:56:43.809Z,0.95
2022-11-24T20:59:06.151Z,0.88
2022-11-24T21:01:39.420Z,0.95
2022-11-24T21:04:02.474Z,0.95
2022-11-24T21:06:25.424Z,0.94
2022-11-24T21:08:47.765Z,0.97
2022-11-24T21:11:11.906Z,1.01
2022-11-24T21:13:35.490Z,1.01
2022-11-24T21:15:57.972Z,0.98
2022-11-24T21:18:20.553Z,1.02
2022-11-24T21:20:43.038Z,1.03
2022-11-24T21:23:05.437Z,1.04
2022-11-24T21:25:27.753Z,1.04
2022-11-24T21:27:50.068Z,1.03
2022-11-24T21:30:13.049Z,1.04
2022-11-24T21:32:35.749Z,1.08
2022-11-24T21:34:58.063Z,1.08
2022-11-24T21:37:20.607Z,1.04
2022-11-24T21:39:44.694Z,1.01
2022-11-24T21:42:07.144Z,0.98
2022-11-24T21:44:31.047Z,0.98
2022-11-24T21:46:56.109Z,1.03
2022-11-24T21:49:18.695Z,1.01
2022-11-24T21:51:41.083Z,0.99
2022-11-24T21:54:03.450Z,1.00
2022-11-24T21:56:25.829Z,1.04
2022-11-24T21:58:56.220Z,0.99
2022-11-24T22:01:20.209Z,0.98
2022-11-24T22:03:42.694Z,0.99
2022-11-24T22:06:05.400Z,0.95
2022-11-24T22:08:28.982Z,0.98
2022-11-24T22:10:51.394Z,1.01
2022-11-24T22:13:13.722Z,1.01
2022-11-24T22:15:36.011Z,1.04
2022-11-24T22:17:58.442Z,1.01
2022-11-24T22:20:20.724Z,1.05
2022-11-24T22:22:43.067Z,1.03
2022-11-24T22:25:06.013Z,1.07
2022-11-24T22:27:28.271Z,1.08
2022-11-24T22:29:54.118Z,1.09
2022-11-24T22:32:16.672Z,1.08
2022-11-24T22:34:38.999Z,1.09
2022-11-24T22:37:01.314Z,1.06
2022-11-24T22:39:23.658Z,1.06
2022-11-24T22:41:46.005Z,1.05
2022-11-24T22:44:08.377Z,1.00
2022-11-24T22:46:31.220Z,1.00
2022-11-24T22:48:54.456Z,0.98
2022-11-24T22:51:18.677Z,0.98
2022-11-24T22:53:41.174Z,0.97
2022-11-24T22:56:10.858Z,1.00
2022-11-24T22:58:33.274Z,1.00
2022-11-24T23:00:55.577Z,1.01
2022-11-24T23:03:17.906Z,1.01
2022-11-24T23:05:40.291Z,0.99
2022-11-24T23:08:02.668Z,0.96
2022-11-24T23:10:24.988Z,1.01
2022-11-24T23:12:47.329Z,0.97
2022-11-24T23:15:09.934Z,0.94
2022-11-24T23:17:32.253Z,0.98
2022-11-24T23:19:54.588Z,0.99
2022-11-24T23:22:16.891Z,0.96
2022-11-24T23:24:39.161Z,1.00
2022-11-24T23:27:01.468Z,0.98
2022-11-24T23:29:23.827Z,0.98
2022-11-24T23:31:46.230Z,0.98
2022-11-24T23:34:08.771Z,1.03
2022-11-24T23:36:31.445Z,1.03
2022-11-24T23:38:54.473Z,1.01
2022-11-24T23:41:24.627Z,1.00
2022-11-24T23:43:46.954Z,1.00
2022-11-24T23:46:17.909Z,0.97
2022-11-24T23:48:40.416Z,1.03
2022-11-24T23:51:16.471Z,1.00
2022-11-24T23:53:39.007Z,1.00
2022-11-24T23:56:01.463Z,1.05
2022-11-24T23:58:23.724Z,1.06
